Airfield :
LOGIN :

Register | Disclaimer

   EN    FR    IT 

 










Legend :    VFR   Marginal VFR   IFR   Intensive IFR   Very Intensive IFR
Visi :
Ceiling :
>= 8 km
>= 3000ft
5 to 8 km
1000 to 3000 ft
1500m to 5 km
500 to 1000 ft
800 to 1500m
200 to 500 ft
< 800m
< 200 ft
Symbols :   Thunderstorms  Fog  Heavy snow  Heavy precipitations  Wind > 20 kt
SIGMETs :     Misc.  Thunderstorms  Icing  Turbulence  Mountain Waves  Volcanic Ashes







- Airport Elevation : 485 ft
- IATA code : QSA


LELL - Sabadell

CURRENT METAR :
  • 231600Z 12009KT 070V170 9999 FEW025 FEW030TCU 27/19 Q1017

EXPIRED METARs :
  • 231530Z 12009KT 060V160 9999 FEW025 FEW030TCU 27/18 Q1017
  • 231500Z 13011KT 080V160 9999 FEW025CB SCT045 27/18 Q1018
  • 231430Z 13011KT 080V160 9999 VCTS FEW020CB SCT040 26/18 Q1018
  • 231400Z 11010KT 060V160 9999 FEW045 27/17 Q1017
  • 231330Z 12013KT 070V160 9999 FEW045 27/18 Q1018

TAF AMD TAF LELL
Valid from the 23 at 15:00 until the 24 at 15:00 UTC


231504Z 2315/2415 13010KT 9999 FEW020 TX33/2412Z TN20/2405Z
PROB40
TEMPO 2315/2320 4000 SHRA FEW020CB BKN030
PROB30
TEMPO 2315/2320 TSRA
BECMG 2318/2321 VRB03KT
BECMG 2409/2411 26008KT
No reported NOTAMs for that airfield.
3 SIGMETs reported for the Barcelona FIR (LECB) :
 
Embedded thunderstorms
LECB SIGMET 8 VALID 231600/231800 LEVA
LECB BARCELONA FIR/UIR EMBD TS OBS AT 1548Z WI N4220 E00320 - N4130 E00210 - N4010 E00230 - N4050 E00440 - N42 E00440 TOP FL380 MOV NE NC=
Embedded thunderstorms
LECB SIGMET 7 VALID 231600/231800 LEVA
LECB BARCELONA FIR/UIR EMBD TS OBS AT 1547Z N OF LINE N4210 E00230 - N4220 W00020 TOP FL380 STNR NC=
Frequent thunderstorms
LECB SIGMET 6 VALID 231600/231800 LEVA
LECB BARCELONA FIR/UIR FRQ TS FCST WI N40 W00110 - N4040 W00040 - N42 E00120 - N4130 E00240 - N3940 E00010 TOP FL400 MOV E NC=



MET'MAP, your aeronautical weather chart ! - Copyright ORBIFLY December 2007 - Disclaimer

ORBIFLY MET'MAP TEAM :

Programming & Development : Alexandra Zaïnal
Concept & Development : Baudouin d'Aumeries
Co-Development & Prog : Marc-Olivier Méhu
Technical & hardware support : Manuel Goepfert

Contact : metmap@orbifly.com




SOURCES & CREDITS :

   NOAA